sensor_id;sensor_type;location;lat;lon;timestamp;temperature;humidity
76203;DHT22;64985;46.364;17.008;2023-08-12T00:02:24;12.10;99.90
76203;DHT22;64985;46.364;17.008;2023-08-12T00:05:27;12.10;99.90
76203;DHT22;64985;46.364;17.008;2023-08-12T00:08:29;12.00;99.90
76203;DHT22;64985;46.364;17.008;2023-08-12T00:11:31;12.00;99.90
76203;DHT22;64985;46.364;17.008;2023-08-12T00:14:33;11.90;99.90
76203;DHT22;64985;46.364;17.008;2023-08-12T00:17:35;11.80;99.90
76203;DHT22;64985;46.364;17.008;2023-08-12T00:20:39;11.80;99.90
76203;DHT22;64985;46.364;17.008;2023-08-12T00:23:41;11.70;99.90
76203;DHT22;64985;46.364;17.008;2023-08-12T00:26:44;11.80;99.90
76203;DHT22;64985;46.364;17.008;2023-08-12T00:29:46;11.80;99.90
76203;DHT22;64985;46.364;17.008;2023-08-12T00:32:49;11.70;99.90
76203;DHT22;64985;46.364;17.008;2023-08-12T00:35:51;11.70;99.90
76203;DHT22;64985;46.364;17.008;2023-08-12T00:38:53;11.60;99.90
76203;DHT22;64985;46.364;17.008;2023-08-12T00:41:55;11.60;99.90
76203;DHT22;64985;46.364;17.008;2023-08-12T00:44:57;11.60;99.90
76203;DHT22;64985;46.364;17.008;2023-08-12T00:48:00;11.50;99.90
76203;DHT22;64985;46.364;17.008;2023-08-12T00:51:02;11.60;99.90
76203;DHT22;64985;46.364;17.008;2023-08-12T00:54:05;11.50;99.90
76203;DHT22;64985;46.364;17.008;2023-08-12T00:57:08;11.50;99.90
76203;DHT22;64985;46.364;17.008;2023-08-12T01:00:11;11.50;99.90
76203;DHT22;64985;46.364;17.008;2023-08-12T01:03:14;11.40;99.90
76203;DHT22;64985;46.364;17.008;2023-08-12T01:06:16;11.40;99.90
76203;DHT22;64985;46.364;17.008;2023-08-12T01:09:18;11.40;99.90
76203;DHT22;64985;46.364;17.008;2023-08-12T01:12:31;11.40;99.90
76203;DHT22;64985;46.364;17.008;2023-08-12T01:15:35;11.40;99.90
76203;DHT22;64985;46.364;17.008;2023-08-12T01:18:40;11.40;99.90
76203;DHT22;64985;46.364;17.008;2023-08-12T01:21:44;11.50;99.90
76203;DHT22;64985;46.364;17.008;2023-08-12T01:24:46;11.50;99.90
76203;DHT22;64985;46.364;17.008;2023-08-12T01:27:48;11.40;99.90
76203;DHT22;64985;46.364;17.008;2023-08-12T01:31:08;11.40;99.90
76203;DHT22;64985;46.364;17.008;2023-08-12T01:34:25;11.40;99.90
76203;DHT22;64985;46.364;17.008;2023-08-12T01:37:31;11.40;99.90
76203;DHT22;64985;46.364;17.008;2023-08-12T01:40:35;11.50;99.90
76203;DHT22;64985;46.364;17.008;2023-08-12T01:43:39;11.50;99.90
76203;DHT22;64985;46.364;17.008;2023-08-12T01:46:44;11.50;99.90
76203;DHT22;64985;46.364;17.008;2023-08-12T01:49:46;11.60;99.90
76203;DHT22;64985;46.364;17.008;2023-08-12T01:52:48;11.60;99.90
76203;DHT22;64985;46.364;17.008;2023-08-12T01:55:51;11.50;99.90
76203;DHT22;64985;46.364;17.008;2023-08-12T01:58:53;11.40;99.90
76203;DHT22;64985;46.364;17.008;2023-08-12T02:01:56;11.30;99.90
76203;DHT22;64985;46.364;17.008;2023-08-12T02:04:58;11.20;99.90
76203;DHT22;64985;46.364;17.008;2023-08-12T02:08:00;11.00;99.90
76203;DHT22;64985;46.364;17.008;2023-08-12T02:11:02;11.00;99.90
76203;DHT22;64985;46.364;17.008;2023-08-12T02:14:04;10.90;99.90
76203;DHT22;64985;46.364;17.008;2023-08-12T02:17:06;10.90;99.90
76203;DHT22;64985;46.364;17.008;2023-08-12T02:20:09;10.90;99.90
76203;DHT22;64985;46.364;17.008;2023-08-12T02:23:12;10.90;99.90
76203;DHT22;64985;46.364;17.008;2023-08-12T02:26:14;11.00;99.90
76203;DHT22;64985;46.364;17.008;2023-08-12T02:29:16;11.10;99.90
76203;DHT22;64985;46.364;17.008;2023-08-12T02:32:18;11.00;99.90
76203;DHT22;64985;46.364;17.008;2023-08-12T02:35:20;11.10;99.90
76203;DHT22;64985;46.364;17.008;2023-08-12T02:38:22;11.00;99.90
76203;DHT22;64985;46.364;17.008;2023-08-12T02:41:24;10.90;99.90
76203;DHT22;64985;46.364;17.008;2023-08-12T02:44:28;10.90;99.90
76203;DHT22;64985;46.364;17.008;2023-08-12T02:47:30;10.90;99.90
76203;DHT22;64985;46.364;17.008;2023-08-12T02:50:32;10.90;99.90
76203;DHT22;64985;46.364;17.008;2023-08-12T02:53:34;11.00;99.90
76203;DHT22;64985;46.364;17.008;2023-08-12T02:56:36;11.10;99.90
76203;DHT22;64985;46.364;17.008;2023-08-12T02:59:38;11.00;99.90
76203;DHT22;64985;46.364;17.008;2023-08-12T03:02:43;11.10;99.90
76203;DHT22;64985;46.364;17.008;2023-08-12T03:05:47;11.00;99.90
76203;DHT22;64985;46.364;17.008;2023-08-12T03:08:49;11.00;99.90
76203;DHT22;64985;46.364;17.008;2023-08-12T03:11:51;10.90;99.90
76203;DHT22;64985;46.364;17.008;2023-08-12T03:14:53;10.80;99.90
76203;DHT22;64985;46.364;17.008;2023-08-12T03:17:56;10.90;99.90
76203;DHT22;64985;46.364;17.008;2023-08-12T03:20:59;10.90;99.90
76203;DHT22;64985;46.364;17.008;2023-08-12T03:24:02;10.90;99.90
76203;DHT22;64985;46.364;17.008;2023-08-12T03:27:04;10.80;99.90
76203;DHT22;64985;46.364;17.008;2023-08-12T03:30:07;10.70;99.90
76203;DHT22;64985;46.364;17.008;2023-08-12T03:33:09;10.70;99.90
76203;DHT22;64985;46.364;17.008;2023-08-12T03:36:11;10.70;99.90
76203;DHT22;64985;46.364;17.008;2023-08-12T03:39:13;10.60;99.90
76203;DHT22;64985;46.364;17.008;2023-08-12T03:42:16;10.70;99.90
76203;DHT22;64985;46.364;17.008;2023-08-12T03:45:18;10.60;99.90
76203;DHT22;64985;46.364;17.008;2023-08-12T03:48:20;10.50;99.90
76203;DHT22;64985;46.364;17.008;2023-08-12T03:51:22;10.60;99.90
76203;DHT22;64985;46.364;17.008;2023-08-12T03:54:24;10.70;99.90
76203;DHT22;64985;46.364;17.008;2023-08-12T03:57:26;10.80;99.90
76203;DHT22;64985;46.364;17.008;2023-08-12T04:00:29;10.70;99.90
76203;DHT22;64985;46.364;17.008;2023-08-12T04:03:31;10.70;99.90
76203;DHT22;64985;46.364;17.008;2023-08-12T04:06:33;10.60;99.90
76203;DHT22;64985;46.364;17.008;2023-08-12T04:09:35;10.60;99.90
76203;DHT22;64985;46.364;17.008;2023-08-12T04:12:37;10.60;99.90
76203;DHT22;64985;46.364;17.008;2023-08-12T04:15:40;10.60;99.90
76203;DHT22;64985;46.364;17.008;2023-08-12T04:18:42;10.80;99.90
76203;DHT22;64985;46.364;17.008;2023-08-12T04:21:44;10.80;99.90
76203;DHT22;64985;46.364;17.008;2023-08-12T04:24:48;10.90;99.90
76203;DHT22;64985;46.364;17.008;2023-08-12T04:27:51;11.00;99.90
76203;DHT22;64985;46.364;17.008;2023-08-12T04:30:53;11.10;99.90
76203;DHT22;64985;46.364;17.008;2023-08-12T04:33:55;11.20;99.90
76203;DHT22;64985;46.364;17.008;2023-08-12T04:36:57;11.10;99.90
76203;DHT22;64985;46.364;17.008;2023-08-12T04:39:59;11.30;99.90
76203;DHT22;64985;46.364;17.008;2023-08-12T04:43:01;11.30;99.90
76203;DHT22;64985;46.364;17.008;2023-08-12T04:46:03;11.30;99.90
76203;DHT22;64985;46.364;17.008;2023-08-12T04:49:05;11.30;99.90
76203;DHT22;64985;46.364;17.008;2023-08-12T04:52:08;11.40;99.90
76203;DHT22;64985;46.364;17.008;2023-08-12T04:55:10;11.50;99.90
76203;DHT22;64985;46.364;17.008;2023-08-12T04:58:12;11.60;99.90
76203;DHT22;64985;46.364;17.008;2023-08-12T05:01:14;11.70;99.90
76203;DHT22;64985;46.364;17.008;2023-08-12T05:04:16;11.70;99.90
76203;DHT22;64985;46.364;17.008;2023-08-12T05:07:18;11.80;99.90
76203;DHT22;64985;46.364;17.008;2023-08-12T05:10:21;12.00;99.90
76203;DHT22;64985;46.364;17.008;2023-08-12T05:13:23;12.10;99.90
76203;DHT22;64985;46.364;17.008;2023-08-12T05:16:25;12.20;99.90
76203;DHT22;64985;46.364;17.008;2023-08-12T05:19:28;12.30;99.90
76203;DHT22;64985;46.364;17.008;2023-08-12T05:22:30;12.30;99.90
76203;DHT22;64985;46.364;17.008;2023-08-12T05:25:32;12.40;99.90
76203;DHT22;64985;46.364;17.008;2023-08-12T05:28:34;12.40;99.90
76203;DHT22;64985;46.364;17.008;2023-08-12T05:31:36;12.60;99.90
76203;DHT22;64985;46.364;17.008;2023-08-12T05:34:39;12.80;99.90
76203;DHT22;64985;46.364;17.008;2023-08-12T05:37:41;12.90;99.90
76203;DHT22;64985;46.364;17.008;2023-08-12T05:40:43;13.10;99.90
76203;DHT22;64985;46.364;17.008;2023-08-12T05:43:45;13.30;99.90
76203;DHT22;64985;46.364;17.008;2023-08-12T05:46:47;13.50;99.90
76203;DHT22;64985;46.364;17.008;2023-08-12T05:49:49;13.70;99.90
76203;DHT22;64985;46.364;17.008;2023-08-12T05:52:51;13.90;99.90
76203;DHT22;64985;46.364;17.008;2023-08-12T05:55:54;14.30;99.90
76203;DHT22;64985;46.364;17.008;2023-08-12T05:58:56;14.50;99.90
76203;DHT22;64985;46.364;17.008;2023-08-12T06:01:58;14.80;99.90
76203;DHT22;64985;46.364;17.008;2023-08-12T06:05:01;15.00;99.90
76203;DHT22;64985;46.364;17.008;2023-08-12T06:08:04;15.40;99.90
76203;DHT22;64985;46.364;17.008;2023-08-12T06:11:06;15.80;99.90
76203;DHT22;64985;46.364;17.008;2023-08-12T06:14:08;16.40;99.90
76203;DHT22;64985;46.364;17.008;2023-08-12T06:17:11;16.90;99.90
76203;DHT22;64985;46.364;17.008;2023-08-12T06:20:13;17.30;99.90
76203;DHT22;64985;46.364;17.008;2023-08-12T06:23:16;17.90;99.90
76203;DHT22;64985;46.364;17.008;2023-08-12T06:26:18;18.50;99.90
76203;DHT22;64985;46.364;17.008;2023-08-12T06:29:20;18.90;99.90
76203;DHT22;64985;46.364;17.008;2023-08-12T06:32:22;19.80;99.90
76203;DHT22;64985;46.364;17.008;2023-08-12T06:35:24;20.30;99.90
76203;DHT22;64985;46.364;17.008;2023-08-12T06:38:26;20.70;99.90
76203;DHT22;64985;46.364;17.008;2023-08-12T06:41:29;21.20;99.90
76203;DHT22;64985;46.364;17.008;2023-08-12T06:44:31;21.40;99.90
76203;DHT22;64985;46.364;17.008;2023-08-12T06:47:33;21.50;99.90
76203;DHT22;64985;46.364;17.008;2023-08-12T06:50:35;21.90;99.90
76203;DHT22;64985;46.364;17.008;2023-08-12T06:53:39;22.10;99.90
76203;DHT22;64985;46.364;17.008;2023-08-12T06:56:41;22.30;99.90
76203;DHT22;64985;46.364;17.008;2023-08-12T06:59:43;22.70;99.80
76203;DHT22;64985;46.364;17.008;2023-08-12T07:02:46;22.90;99.60
76203;DHT22;64985;46.364;17.008;2023-08-12T07:05:48;23.30;96.10
76203;DHT22;64985;46.364;17.008;2023-08-12T07:08:50;23.70;92.60
76203;DHT22;64985;46.364;17.008;2023-08-12T07:11:52;24.10;90.70
76203;DHT22;64985;46.364;17.008;2023-08-12T07:14:54;24.60;84.70
76203;DHT22;64985;46.364;17.008;2023-08-12T07:17:56;24.80;82.50
76203;DHT22;64985;46.364;17.008;2023-08-12T07:20:59;25.20;86.80
76203;DHT22;64985;46.364;17.008;2023-08-12T07:24:01;25.40;79.90
76203;DHT22;64985;46.364;17.008;2023-08-12T07:27:05;25.40;85.20
76203;DHT22;64985;46.364;17.008;2023-08-12T07:30:09;25.40;83.30
76203;DHT22;64985;46.364;17.008;2023-08-12T07:33:11;25.60;80.40
76203;DHT22;64985;46.364;17.008;2023-08-12T07:36:13;26.10;81.40
76203;DHT22;64985;46.364;17.008;2023-08-12T07:39:15;26.70;74.10
76203;DHT22;64985;46.364;17.008;2023-08-12T07:42:18;26.80;76.20
76203;DHT22;64985;46.364;17.008;2023-08-12T07:45:21;26.90;71.80
76203;DHT22;64985;46.364;17.008;2023-08-12T07:48:23;26.70;70.40
76203;DHT22;64985;46.364;17.008;2023-08-12T07:51:26;26.80;68.60
76203;DHT22;64985;46.364;17.008;2023-08-12T07:54:28;27.20;62.30
76203;DHT22;64985;46.364;17.008;2023-08-12T07:57:30;27.10;64.80
76203;DHT22;64985;46.364;17.008;2023-08-12T08:00:33;27.10;64.90
76203;DHT22;64985;46.364;17.008;2023-08-12T08:03:35;27.50;63.10
76203;DHT22;64985;46.364;17.008;2023-08-12T08:06:37;27.80;66.50
76203;DHT22;64985;46.364;17.008;2023-08-12T08:09:39;27.80;60.50
76203;DHT22;64985;46.364;17.008;2023-08-12T08:12:42;27.80;60.90
76203;DHT22;64985;46.364;17.008;2023-08-12T08:15:44;27.70;59.40
76203;DHT22;64985;46.364;17.008;2023-08-12T08:18:47;28.10;60.90
76203;DHT22;64985;46.364;17.008;2023-08-12T08:21:49;28.40;57.70
76203;DHT22;64985;46.364;17.008;2023-08-12T08:24:51;28.60;55.10
76203;DHT22;64985;46.364;17.008;2023-08-12T08:27:53;28.00;59.00
76203;DHT22;64985;46.364;17.008;2023-08-12T08:30:55;28.10;58.00
76203;DHT22;64985;46.364;17.008;2023-08-12T08:33:59;28.30;55.60
76203;DHT22;64985;46.364;17.008;2023-08-12T08:37:01;28.40;54.40
76203;DHT22;64985;46.364;17.008;2023-08-12T08:40:04;28.20;56.90
76203;DHT22;64985;46.364;17.008;2023-08-12T08:43:07;27.60;53.10
76203;DHT22;64985;46.364;17.008;2023-08-12T08:46:10;27.70;55.10
76203;DHT22;64985;46.364;17.008;2023-08-12T08:49:17;27.90;54.10
76203;DHT22;64985;46.364;17.008;2023-08-12T08:52:20;28.30;58.60
76203;DHT22;64985;46.364;17.008;2023-08-12T08:55:23;28.80;55.80
76203;DHT22;64985;46.364;17.008;2023-08-12T08:58:25;29.10;53.30
76203;DHT22;64985;46.364;17.008;2023-08-12T09:01:31;29.20;51.50
76203;DHT22;64985;46.364;17.008;2023-08-12T09:04:34;28.60;52.80
76203;DHT22;64985;46.364;17.008;2023-08-12T09:07:36;28.10;52.70
76203;DHT22;64985;46.364;17.008;2023-08-12T09:10:40;27.80;50.60
76203;DHT22;64985;46.364;17.008;2023-08-12T09:13:42;28.10;51.20
76203;DHT22;64985;46.364;17.008;2023-08-12T09:16:44;28.70;52.70
76203;DHT22;64985;46.364;17.008;2023-08-12T09:19:46;29.40;48.70
76203;DHT22;64985;46.364;17.008;2023-08-12T09:22:56;29.60;50.50
76203;DHT22;64985;46.364;17.008;2023-08-12T09:26:01;29.00;45.80
76203;DHT22;64985;46.364;17.008;2023-08-12T09:29:03;28.70;51.60
76203;DHT22;64985;46.364;17.008;2023-08-12T09:35:17;28.80;51.70
76203;DHT22;64985;46.364;17.008;2023-08-12T09:38:20;28.50;50.90
76203;DHT22;64985;46.364;17.008;2023-08-12T09:41:24;29.20;52.20
76203;DHT22;64985;46.364;17.008;2023-08-12T09:44:26;29.30;47.80
76203;DHT22;64985;46.364;17.008;2023-08-12T09:47:28;29.10;50.10
76203;DHT22;64985;46.364;17.008;2023-08-12T09:50:34;29.00;48.70
76203;DHT22;64985;46.364;17.008;2023-08-12T09:53:38;28.80;46.20
76203;DHT22;64985;46.364;17.008;2023-08-12T09:56:40;28.90;52.40
76203;DHT22;64985;46.364;17.008;2023-08-12T09:59:45;28.90;49.10
76203;DHT22;64985;46.364;17.008;2023-08-12T10:02:50;28.60;51.90
76203;DHT22;64985;46.364;17.008;2023-08-12T10:05:57;28.30;52.30
76203;DHT22;64985;46.364;17.008;2023-08-12T10:08:59;28.50;50.20
76203;DHT22;64985;46.364;17.008;2023-08-12T10:12:02;29.00;49.10
76203;DHT22;64985;46.364;17.008;2023-08-12T10:15:05;28.70;51.20
76203;DHT22;64985;46.364;17.008;2023-08-12T10:18:08;28.60;51.80
76203;DHT22;64985;46.364;17.008;2023-08-12T10:21:14;28.10;51.10
76203;DHT22;64985;46.364;17.008;2023-08-12T10:24:16;28.10;50.50
76203;DHT22;64985;46.364;17.008;2023-08-12T10:27:19;28.50;45.50
76203;DHT22;64985;46.364;17.008;2023-08-12T10:30:21;29.10;43.90
76203;DHT22;64985;46.364;17.008;2023-08-12T10:33:23;28.90;47.30
76203;DHT22;64985;46.364;17.008;2023-08-12T10:36:27;28.50;45.20
76203;DHT22;64985;46.364;17.008;2023-08-12T10:39:32;28.90;44.70
76203;DHT22;64985;46.364;17.008;2023-08-12T10:42:45;29.30;45.90
76203;DHT22;64985;46.364;17.008;2023-08-12T10:45:51;29.50;51.50
76203;DHT22;64985;46.364;17.008;2023-08-12T10:49:11;29.70;51.30
76203;DHT22;64985;46.364;17.008;2023-08-12T10:52:29;30.30;45.40
76203;DHT22;64985;46.364;17.008;2023-08-12T10:55:36;30.30;46.00
76203;DHT22;64985;46.364;17.008;2023-08-12T10:58:46;30.30;43.30
76203;DHT22;64985;46.364;17.008;2023-08-12T11:01:48;29.60;47.70
76203;DHT22;64985;46.364;17.008;2023-08-12T11:05:01;29.90;51.90
76203;DHT22;64985;46.364;17.008;2023-08-12T11:08:05;30.10;45.60
76203;DHT22;64985;46.364;17.008;2023-08-12T11:11:22;30.00;48.30
76203;DHT22;64985;46.364;17.008;2023-08-12T11:14:24;29.50;46.70
76203;DHT22;64985;46.364;17.008;2023-08-12T11:20:37;30.60;44.20
76203;DHT22;64985;46.364;17.008;2023-08-12T11:23:39;30.80;45.40
76203;DHT22;64985;46.364;17.008;2023-08-12T11:26:41;30.10;47.10
76203;DHT22;64985;46.364;17.008;2023-08-12T11:29:44;29.10;46.80
76203;DHT22;64985;46.364;17.008;2023-08-12T11:32:47;28.80;49.70
76203;DHT22;64985;46.364;17.008;2023-08-12T11:35:50;28.80;49.60
76203;DHT22;64985;46.364;17.008;2023-08-12T11:38:52;29.90;50.80
76203;DHT22;64985;46.364;17.008;2023-08-12T11:41:55;30.40;49.50
76203;DHT22;64985;46.364;17.008;2023-08-12T11:44:59;30.50;45.10
76203;DHT22;64985;46.364;17.008;2023-08-12T11:48:01;30.60;42.70
76203;DHT22;64985;46.364;17.008;2023-08-12T11:51:04;30.10;48.60
76203;DHT22;64985;46.364;17.008;2023-08-12T11:54:07;29.60;45.90
76203;DHT22;64985;46.364;17.008;2023-08-12T11:57:09;29.60;47.50
76203;DHT22;64985;46.364;17.008;2023-08-12T12:00:13;29.70;48.90
76203;DHT22;64985;46.364;17.008;2023-08-12T12:03:17;30.20;44.90
76203;DHT22;64985;46.364;17.008;2023-08-12T12:06:35;30.90;43.90
76203;DHT22;64985;46.364;17.008;2023-08-12T12:09:43;30.80;42.60
76203;DHT22;64985;46.364;17.008;2023-08-12T12:12:45;30.50;46.30
76203;DHT22;64985;46.364;17.008;2023-08-12T12:15:47;29.90;48.30
76203;DHT22;64985;46.364;17.008;2023-08-12T12:18:57;29.20;49.40
76203;DHT22;64985;46.364;17.008;2023-08-12T12:22:03;29.70;47.30
76203;DHT22;64985;46.364;17.008;2023-08-12T12:25:08;29.50;47.20
76203;DHT22;64985;46.364;17.008;2023-08-12T12:28:11;29.60;46.80
76203;DHT22;64985;46.364;17.008;2023-08-12T12:31:13;29.50;52.10
76203;DHT22;64985;46.364;17.008;2023-08-12T12:34:15;29.70;50.60
76203;DHT22;64985;46.364;17.008;2023-08-12T12:37:19;29.20;46.20
76203;DHT22;64985;46.364;17.008;2023-08-12T12:40:21;29.30;52.90
76203;DHT22;64985;46.364;17.008;2023-08-12T12:43:23;29.60;44.10
76203;DHT22;64985;46.364;17.008;2023-08-12T12:46:25;29.90;52.10
76203;DHT22;64985;46.364;17.008;2023-08-12T12:49:28;30.90;44.10
76203;DHT22;64985;46.364;17.008;2023-08-12T12:52:30;31.10;44.90
76203;DHT22;64985;46.364;17.008;2023-08-12T12:55:32;30.20;46.70
76203;DHT22;64985;46.364;17.008;2023-08-12T12:58:35;29.40;45.90
76203;DHT22;64985;46.364;17.008;2023-08-12T13:01:37;29.30;43.90
76203;DHT22;64985;46.364;17.008;2023-08-12T13:04:40;29.20;50.90
76203;DHT22;64985;46.364;17.008;2023-08-12T13:07:42;29.00;49.40
76203;DHT22;64985;46.364;17.008;2023-08-12T13:10:44;29.30;46.70
76203;DHT22;64985;46.364;17.008;2023-08-12T13:13:46;30.10;47.70
76203;DHT22;64985;46.364;17.008;2023-08-12T13:16:49;30.30;45.60
76203;DHT22;64985;46.364;17.008;2023-08-12T13:19:51;30.60;45.20
76203;DHT22;64985;46.364;17.008;2023-08-12T13:22:53;30.70;48.80
76203;DHT22;64985;46.364;17.008;2023-08-12T13:25:55;30.10;47.80
76203;DHT22;64985;46.364;17.008;2023-08-12T13:28:57;30.30;45.80
76203;DHT22;64985;46.364;17.008;2023-08-12T13:31:59;30.00;45.20
76203;DHT22;64985;46.364;17.008;2023-08-12T13:35:01;29.30;50.70
76203;DHT22;64985;46.364;17.008;2023-08-12T13:38:04;29.40;48.20
76203;DHT22;64985;46.364;17.008;2023-08-12T13:41:06;29.80;44.80
76203;DHT22;64985;46.364;17.008;2023-08-12T13:44:08;29.70;46.40
76203;DHT22;64985;46.364;17.008;2023-08-12T13:47:10;30.10;49.10
76203;DHT22;64985;46.364;17.008;2023-08-12T13:50:12;30.30;43.50
76203;DHT22;64985;46.364;17.008;2023-08-12T13:53:15;30.90;46.20
76203;DHT22;64985;46.364;17.008;2023-08-12T13:56:18;31.00;43.80
76203;DHT22;64985;46.364;17.008;2023-08-12T13:59:20;30.50;41.40
76203;DHT22;64985;46.364;17.008;2023-08-12T14:02:22;29.80;44.00
76203;DHT22;64985;46.364;17.008;2023-08-12T14:05:25;29.60;42.10
76203;DHT22;64985;46.364;17.008;2023-08-12T14:08:27;29.90;45.10
76203;DHT22;64985;46.364;17.008;2023-08-12T14:11:29;30.00;48.30
76203;DHT22;64985;46.364;17.008;2023-08-12T14:14:31;30.00;43.00
76203;DHT22;64985;46.364;17.008;2023-08-12T14:17:33;29.70;47.60
76203;DHT22;64985;46.364;17.008;2023-08-12T14:20:36;29.70;44.50
76203;DHT22;64985;46.364;17.008;2023-08-12T14:23:38;30.30;41.40
76203;DHT22;64985;46.364;17.008;2023-08-12T14:26:40;30.80;45.60
76203;DHT22;64985;46.364;17.008;2023-08-12T14:29:42;30.70;42.20
76203;DHT22;64985;46.364;17.008;2023-08-12T14:32:44;30.20;42.90
76203;DHT22;64985;46.364;17.008;2023-08-12T14:35:47;29.60;43.80
76203;DHT22;64985;46.364;17.008;2023-08-12T14:38:50;29.60;44.40
76203;DHT22;64985;46.364;17.008;2023-08-12T14:41:52;29.30;44.40
76203;DHT22;64985;46.364;17.008;2023-08-12T14:44:54;29.70;41.70
76203;DHT22;64985;46.364;17.008;2023-08-12T14:47:56;30.00;44.10
76203;DHT22;64985;46.364;17.008;2023-08-12T14:50:58;29.90;44.70
76203;DHT22;64985;46.364;17.008;2023-08-12T14:54:01;29.50;41.10
76203;DHT22;64985;46.364;17.008;2023-08-12T14:57:03;29.60;49.00
76203;DHT22;64985;46.364;17.008;2023-08-12T15:00:05;30.20;46.00
76203;DHT22;64985;46.364;17.008;2023-08-12T15:03:09;30.00;42.90
76203;DHT22;64985;46.364;17.008;2023-08-12T15:06:13;30.10;43.00
76203;DHT22;64985;46.364;17.008;2023-08-12T15:09:15;30.00;42.00
76203;DHT22;64985;46.364;17.008;2023-08-12T15:12:21;29.80;45.40
76203;DHT22;64985;46.364;17.008;2023-08-12T15:15:23;29.40;48.40
76203;DHT22;64985;46.364;17.008;2023-08-12T15:18:25;29.40;48.50
76203;DHT22;64985;46.364;17.008;2023-08-12T15:21:27;29.80;47.50
76203;DHT22;64985;46.364;17.008;2023-08-12T15:24:29;30.20;43.80
76203;DHT22;64985;46.364;17.008;2023-08-12T15:27:32;30.10;46.60
76203;DHT22;64985;46.364;17.008;2023-08-12T15:30:34;30.40;45.50
76203;DHT22;64985;46.364;17.008;2023-08-12T15:33:36;30.90;45.00
76203;DHT22;64985;46.364;17.008;2023-08-12T15:36:41;30.60;44.50
76203;DHT22;64985;46.364;17.008;2023-08-12T15:39:44;30.30;45.90
76203;DHT22;64985;46.364;17.008;2023-08-12T15:42:46;30.80;43.50
76203;DHT22;64985;46.364;17.008;2023-08-12T15:45:50;30.80;46.90
76203;DHT22;64985;46.364;17.008;2023-08-12T15:48:53;30.90;46.30
76203;DHT22;64985;46.364;17.008;2023-08-12T15:51:55;31.10;45.10
76203;DHT22;64985;46.364;17.008;2023-08-12T15:54:57;30.40;48.60
76203;DHT22;64985;46.364;17.008;2023-08-12T15:57:59;30.10;46.50
76203;DHT22;64985;46.364;17.008;2023-08-12T16:01:01;29.90;44.80
76203;DHT22;64985;46.364;17.008;2023-08-12T16:04:03;29.50;47.60
76203;DHT22;64985;46.364;17.008;2023-08-12T16:07:07;29.50;46.30
76203;DHT22;64985;46.364;17.008;2023-08-12T16:10:09;29.50;50.50
76203;DHT22;64985;46.364;17.008;2023-08-12T16:13:11;28.80;47.60
76203;DHT22;64985;46.364;17.008;2023-08-12T16:16:13;28.30;52.30
76203;DHT22;64985;46.364;17.008;2023-08-12T16:19:16;27.90;50.40
76203;DHT22;64985;46.364;17.008;2023-08-12T16:22:18;27.50;51.50
76203;DHT22;64985;46.364;17.008;2023-08-12T16:25:20;27.20;51.80
76203;DHT22;64985;46.364;17.008;2023-08-12T16:28:22;27.10;55.00
76203;DHT22;64985;46.364;17.008;2023-08-12T16:31:24;27.00;54.90
76203;DHT22;64985;46.364;17.008;2023-08-12T16:34:26;26.80;55.50
76203;DHT22;64985;46.364;17.008;2023-08-12T16:37:28;26.60;55.10
76203;DHT22;64985;46.364;17.008;2023-08-12T16:40:30;26.60;59.30
76203;DHT22;64985;46.364;17.008;2023-08-12T16:43:34;26.40;56.80
76203;DHT22;64985;46.364;17.008;2023-08-12T16:46:36;26.20;58.80
76203;DHT22;64985;46.364;17.008;2023-08-12T16:49:38;26.10;60.00
76203;DHT22;64985;46.364;17.008;2023-08-12T16:52:41;26.00;62.40
76203;DHT22;64985;46.364;17.008;2023-08-12T16:55:43;25.80;65.20
76203;DHT22;64985;46.364;17.008;2023-08-12T16:58:45;25.60;68.00
76203;DHT22;64985;46.364;17.008;2023-08-12T17:01:47;25.30;71.50
76203;DHT22;64985;46.364;17.008;2023-08-12T17:04:49;24.90;74.10
76203;DHT22;64985;46.364;17.008;2023-08-12T17:07:51;24.70;74.90
76203;DHT22;64985;46.364;17.008;2023-08-12T17:10:54;24.60;77.30
76203;DHT22;64985;46.364;17.008;2023-08-12T17:13:56;24.30;78.00
76203;DHT22;64985;46.364;17.008;2023-08-12T17:16:59;24.00;82.70
76203;DHT22;64985;46.364;17.008;2023-08-12T17:20:01;23.60;88.80
76203;DHT22;64985;46.364;17.008;2023-08-12T17:23:03;23.30;90.90
76203;DHT22;64985;46.364;17.008;2023-08-12T17:26:05;22.90;94.00
76203;DHT22;64985;46.364;17.008;2023-08-12T17:29:08;22.60;95.80
76203;DHT22;64985;46.364;17.008;2023-08-12T17:32:10;22.40;99.50
76203;DHT22;64985;46.364;17.008;2023-08-12T17:35:12;22.10;99.90
76203;DHT22;64985;46.364;17.008;2023-08-12T17:38:15;21.90;99.90
76203;DHT22;64985;46.364;17.008;2023-08-12T17:41:17;21.50;99.90
76203;DHT22;64985;46.364;17.008;2023-08-12T17:44:19;21.20;99.90
76203;DHT22;64985;46.364;17.008;2023-08-12T17:47:21;20.80;99.90
76203;DHT22;64985;46.364;17.008;2023-08-12T17:50:24;20.50;99.90
76203;DHT22;64985;46.364;17.008;2023-08-12T17:53:26;20.40;99.90
76203;DHT22;64985;46.364;17.008;2023-08-12T17:56:28;20.10;99.90
76203;DHT22;64985;46.364;17.008;2023-08-12T17:59:31;19.90;99.90
76203;DHT22;64985;46.364;17.008;2023-08-12T18:02:33;19.90;99.90
76203;DHT22;64985;46.364;17.008;2023-08-12T18:05:35;19.70;99.90
76203;DHT22;64985;46.364;17.008;2023-08-12T18:08:37;19.50;99.90
76203;DHT22;64985;46.364;17.008;2023-08-12T18:11:40;19.30;99.90
76203;DHT22;64985;46.364;17.008;2023-08-12T18:14:42;18.90;99.90
76203;DHT22;64985;46.364;17.008;2023-08-12T18:17:44;18.60;99.90
76203;DHT22;64985;46.364;17.008;2023-08-12T18:20:46;18.50;99.90
76203;DHT22;64985;46.364;17.008;2023-08-12T18:23:48;18.40;99.90
76203;DHT22;64985;46.364;17.008;2023-08-12T18:26:50;18.40;99.90
76203;DHT22;64985;46.364;17.008;2023-08-12T18:29:52;18.20;99.90
76203;DHT22;64985;46.364;17.008;2023-08-12T18:32:55;18.10;99.90
76203;DHT22;64985;46.364;17.008;2023-08-12T18:35:57;18.10;99.90
76203;DHT22;64985;46.364;17.008;2023-08-12T18:38:59;17.90;99.90
76203;DHT22;64985;46.364;17.008;2023-08-12T18:42:01;17.80;99.90
76203;DHT22;64985;46.364;17.008;2023-08-12T18:45:04;17.70;99.90
76203;DHT22;64985;46.364;17.008;2023-08-12T18:48:07;17.50;99.90
76203;DHT22;64985;46.364;17.008;2023-08-12T18:51:09;17.30;99.90
76203;DHT22;64985;46.364;17.008;2023-08-12T18:54:11;17.10;99.90
76203;DHT22;64985;46.364;17.008;2023-08-12T18:57:14;17.10;99.90
76203;DHT22;64985;46.364;17.008;2023-08-12T19:00:16;17.10;99.90
76203;DHT22;64985;46.364;17.008;2023-08-12T19:03:19;16.90;99.90